createdAt,value
2017-06-24T00:00:55.860Z,64.70
2017-06-24T00:03:24.164Z,64.70
2017-06-24T00:05:52.457Z,64.40
2017-06-24T00:08:20.765Z,64.50
2017-06-24T00:10:49.056Z,64.60
2017-06-24T00:13:17.364Z,64.40
2017-06-24T00:15:45.649Z,64.50
2017-06-24T00:18:13.972Z,64.40
2017-06-24T00:20:42.273Z,64.50
2017-06-24T00:23:10.557Z,64.70
2017-06-24T00:25:38.864Z,64.90
2017-06-24T00:28:07.162Z,65.00
2017-06-24T00:30:35.477Z,65.10
2017-06-24T00:33:03.765Z,65.50
2017-06-24T00:35:32.073Z,65.60
2017-06-24T00:38:00.360Z,65.90
2017-06-24T00:40:28.671Z,65.80
2017-06-24T00:42:56.952Z,65.90
2017-06-24T00:45:25.245Z,65.90
2017-06-24T00:47:53.548Z,66.10
2017-06-24T00:50:21.837Z,66.00
2017-06-24T00:52:50.146Z,66.20
2017-06-24T00:55:18.436Z,66.30
2017-06-24T00:57:46.748Z,66.50
2017-06-24T01:00:15.041Z,66.60
2017-06-24T01:02:43.369Z,66.50
2017-06-24T01:05:11.658Z,66.60
2017-06-24T01:07:39.944Z,66.60
2017-06-24T01:10:08.252Z,66.80
2017-06-24T01:12:36.537Z,66.90
2017-06-24T01:15:04.845Z,67.10
2017-06-24T01:17:33.140Z,67.10
2017-06-24T01:20:01.449Z,67.20
2017-06-24T01:22:29.741Z,67.30
2017-06-24T01:24:58.065Z,67.40
2017-06-24T01:27:26.351Z,67.40
2017-06-24T01:29:54.637Z,67.50
2017-06-24T01:32:22.944Z,67.50
2017-06-24T01:34:51.240Z,67.70
2017-06-24T01:37:19.548Z,68.00
2017-06-24T01:39:47.828Z,68.10
2017-06-24T01:42:16.140Z,68.00
2017-06-24T01:44:44.433Z,68.20
2017-06-24T01:47:12.764Z,68.30
2017-06-24T01:49:41.057Z,68.30
2017-06-24T01:52:09.344Z,68.40
2017-06-24T01:54:37.656Z,68.80
2017-06-24T01:57:05.945Z,68.60
2017-06-24T01:59:34.248Z,68.80
2017-06-24T02:02:02.535Z,69.00
2017-06-24T02:04:30.849Z,69.20
2017-06-24T02:06:59.145Z,69.40
2017-06-24T02:09:27.428Z,69.50
2017-06-24T02:11:55.732Z,70.00
2017-06-24T02:14:24.020Z,70.00
2017-06-24T02:16:52.329Z,70.20
2017-06-24T02:19:20.621Z,70.50
2017-06-24T02:21:48.931Z,70.80
2017-06-24T02:24:17.215Z,71.20
2017-06-24T02:26:45.508Z,71.30
2017-06-24T02:29:13.061Z,71.30
2017-06-24T02:31:41.358Z,71.80
2017-06-24T02:34:09.665Z,71.80
2017-06-24T02:36:37.948Z,72.10
2017-06-24T02:39:06.256Z,72.20
2017-06-24T02:41:34.546Z,72.40
2017-06-24T02:44:02.864Z,72.20
2017-06-24T02:46:31.156Z,72.20
2017-06-24T02:48:59.444Z,72.10
2017-06-24T02:51:27.765Z,71.70
2017-06-24T02:53:56.052Z,71.40
2017-06-24T02:56:24.364Z,71.50
2017-06-24T02:58:52.652Z,71.60
2017-06-24T03:01:20.960Z,71.60
2017-06-24T03:03:49.253Z,71.60
2017-06-24T03:06:17.648Z,71.50
2017-06-24T03:08:45.945Z,71.30
2017-06-24T03:11:14.233Z,71.40
2017-06-24T03:13:42.566Z,71.30
2017-06-24T03:16:10.861Z,71.10
2017-06-24T03:18:39.165Z,70.80
2017-06-24T03:21:07.448Z,70.80
2017-06-24T03:23:35.753Z,70.80
2017-06-24T03:26:04.049Z,70.60
2017-06-24T03:28:32.360Z,70.40
2017-06-24T03:31:00.653Z,70.30
2017-06-24T03:33:28.953Z,70.00
2017-06-24T03:35:57.261Z,69.70
2017-06-24T03:38:25.541Z,69.30
2017-06-24T03:40:53.844Z,68.80
2017-06-24T03:43:22.133Z,68.40
2017-06-24T03:45:50.432Z,68.10
2017-06-24T03:48:18.724Z,67.70
2017-06-24T03:50:47.008Z,67.10
2017-06-24T03:53:15.321Z,66.60
2017-06-24T03:55:43.604Z,66.10
2017-06-24T03:58:11.913Z,66.00
2017-06-24T04:00:40.204Z,65.60
2017-06-24T04:03:08.509Z,65.10
2017-06-24T04:05:36.792Z,64.70
2017-06-24T04:08:05.112Z,64.60
2017-06-24T04:10:33.398Z,64.40
2017-06-24T04:13:01.688Z,64.20
2017-06-24T04:15:29.996Z,63.30
2017-06-24T04:17:58.284Z,63.20
2017-06-24T04:20:26.596Z,63.20
2017-06-24T04:22:54.893Z,63.10
2017-06-24T04:25:23.205Z,62.80
2017-06-24T04:27:51.488Z,62.70
2017-06-24T04:30:19.808Z,62.70
2017-06-24T04:32:48.093Z,62.20
2017-06-24T04:35:16.376Z,61.70
2017-06-24T04:37:44.688Z,60.30
2017-06-24T04:40:12.987Z,60.00
2017-06-24T04:42:41.307Z,60.00
2017-06-24T04:45:09.588Z,59.90
2017-06-24T04:47:37.896Z,59.40
2017-06-24T04:50:06.186Z,58.80
2017-06-24T04:52:34.492Z,57.10
2017-06-24T04:55:02.796Z,55.30
2017-06-24T04:57:31.076Z,54.60
2017-06-24T04:59:59.385Z,54.80
2017-06-24T05:02:27.671Z,55.10
2017-06-24T05:04:55.980Z,55.50
2017-06-24T05:07:24.266Z,55.70
2017-06-24T05:09:52.572Z,55.70
2017-06-24T05:12:20.853Z,55.90
2017-06-24T05:14:49.139Z,55.90
2017-06-24T05:17:17.442Z,56.00
2017-06-24T05:19:45.729Z,56.50
2017-06-24T05:22:14.049Z,56.50
2017-06-24T05:24:42.351Z,56.20
2017-06-24T05:27:10.659Z,56.10
2017-06-24T05:29:38.953Z,56.10
2017-06-24T05:32:07.277Z,56.60
2017-06-24T05:34:35.565Z,55.80
2017-06-24T05:37:03.848Z,55.70
2017-06-24T05:39:32.165Z,55.60
2017-06-24T05:42:00.458Z,55.30
2017-06-24T05:44:29.596Z,55.40
2017-06-24T05:46:57.880Z,55.20
2017-06-24T05:49:26.188Z,55.10
2017-06-24T05:51:54.473Z,54.60
2017-06-24T05:54:22.804Z,54.60
2017-06-24T05:56:51.085Z,55.00
2017-06-24T05:59:19.372Z,54.80
2017-06-24T06:01:47.680Z,54.60
2017-06-24T06:04:15.968Z,54.60
2017-06-24T06:06:44.288Z,54.70
2017-06-24T06:09:12.664Z,54.60
2017-06-24T06:11:40.969Z,53.90
2017-06-24T06:14:09.362Z,53.60
2017-06-24T06:16:37.676Z,53.70
2017-06-24T06:19:05.966Z,53.60
2017-06-24T06:21:34.261Z,53.30
2017-06-24T06:24:02.572Z,53.10
2017-06-24T06:26:30.853Z,52.70
2017-06-24T06:28:59.292Z,51.60
2017-06-24T06:31:27.581Z,51.40
2017-06-24T06:33:55.134Z,51.40
2017-06-24T06:36:23.423Z,50.90
2017-06-24T06:38:51.732Z,50.50
2017-06-24T06:41:20.032Z,50.20
2017-06-24T06:43:48.342Z,49.90
2017-06-24T06:46:16.660Z,50.00
2017-06-24T06:48:44.948Z,50.20
2017-06-24T06:51:12.760Z,50.20
2017-06-24T06:53:41.067Z,49.50
2017-06-24T06:56:09.846Z,49.20
2017-06-24T06:58:38.136Z,48.80
2017-06-24T07:01:06.440Z,47.60
2017-06-24T07:03:34.734Z,47.80
2017-06-24T07:06:03.021Z,48.40
2017-06-24T07:08:31.327Z,47.90
2017-06-24T07:10:59.620Z,48.40
2017-06-24T07:13:28.267Z,48.70
2017-06-24T07:15:56.552Z,48.40
2017-06-24T07:18:24.860Z,48.00
2017-06-24T07:20:53.167Z,47.80
2017-06-24T07:23:21.484Z,47.70
2017-06-24T07:25:49.781Z,47.50
2017-06-24T07:28:18.096Z,47.30
2017-06-24T07:30:46.417Z,46.50
2017-06-24T07:33:14.730Z,46.50
2017-06-24T07:35:43.045Z,46.70
2017-06-24T07:38:11.345Z,46.60
2017-06-24T07:40:39.648Z,46.60
2017-06-24T07:43:07.949Z,46.50
2017-06-24T07:45:36.345Z,46.30
2017-06-24T07:48:04.633Z,46.60
2017-06-24T07:50:32.921Z,47.20
2017-06-24T07:53:01.233Z,47.70
2017-06-24T07:55:29.517Z,47.00
2017-06-24T07:57:57.825Z,46.10
2017-06-24T08:00:26.113Z,45.60
2017-06-24T08:02:54.417Z,44.10
2017-06-24T08:05:22.700Z,44.70
2017-06-24T08:07:51.016Z,45.00
2017-06-24T08:10:19.303Z,44.50
2017-06-24T08:12:47.600Z,44.20
2017-06-24T08:15:15.909Z,43.30
2017-06-24T08:17:43.476Z,43.30
2017-06-24T08:20:11.789Z,43.60
2017-06-24T08:22:40.086Z,43.00
2017-06-24T08:25:08.392Z,42.90
2017-06-24T08:27:36.672Z,43.80
2017-06-24T08:30:05.000Z,44.20
2017-06-24T08:32:33.288Z,44.50
2017-06-24T08:35:01.573Z,44.80
2017-06-24T08:37:29.886Z,44.50
2017-06-24T08:39:58.177Z,44.60
2017-06-24T08:42:26.480Z,45.00
2017-06-24T08:44:54.776Z,45.10
2017-06-24T08:47:23.079Z,44.20
2017-06-24T08:49:51.368Z,43.50
2017-06-24T08:52:19.673Z,43.00
2017-06-24T08:54:47.961Z,42.50
2017-06-24T08:57:16.288Z,42.20
2017-06-24T08:59:44.593Z,42.30
2017-06-24T09:02:12.900Z,41.70
2017-06-24T09:04:41.226Z,41.50
2017-06-24T09:07:09.521Z,41.20
2017-06-24T09:09:37.838Z,41.20
2017-06-24T09:12:05.371Z,41.10
2017-06-24T09:14:33.684Z,40.80
2017-06-24T09:17:01.973Z,41.60
2017-06-24T09:19:30.288Z,42.40
2017-06-24T09:21:58.579Z,42.10
2017-06-24T09:24:26.866Z,41.60
2017-06-24T09:26:55.189Z,41.40
2017-06-24T09:29:23.480Z,41.40
2017-06-24T09:31:51.789Z,41.20
2017-06-24T09:34:20.072Z,41.00
2017-06-24T09:36:48.384Z,40.10
2017-06-24T09:39:16.684Z,39.80
2017-06-24T09:41:45.000Z,39.80
2017-06-24T09:44:13.299Z,40.10
2017-06-24T09:46:41.595Z,40.70
2017-06-24T09:49:09.904Z,40.10
2017-06-24T09:51:38.188Z,40.30
2017-06-24T09:54:06.505Z,40.50
2017-06-24T09:56:34.796Z,40.70
2017-06-24T09:59:03.101Z,40.30
2017-06-24T10:01:31.388Z,40.60
2017-06-24T10:03:59.709Z,39.90
2017-06-24T10:06:27.996Z,39.70
2017-06-24T10:08:56.289Z,39.70
2017-06-24T10:11:24.592Z,40.60
2017-06-24T10:13:52.884Z,39.80
2017-06-24T10:16:21.189Z,39.10
2017-06-24T10:18:49.476Z,39.20
2017-06-24T10:21:17.802Z,39.70
2017-06-24T10:23:46.080Z,39.90
2017-06-24T10:26:14.396Z,39.80
2017-06-24T10:28:42.904Z,38.50
2017-06-24T10:31:11.208Z,38.60
2017-06-24T10:33:39.541Z,38.90
2017-06-24T10:36:07.834Z,39.10
2017-06-24T10:38:36.144Z,38.70
2017-06-24T10:41:04.445Z,38.60
2017-06-24T10:43:32.778Z,37.90
2017-06-24T10:46:01.069Z,37.30
2017-06-24T10:48:29.389Z,37.30
2017-06-24T10:50:57.677Z,38.30
2017-06-24T10:53:25.956Z,38.10
2017-06-24T10:55:54.260Z,38.10
2017-06-24T10:58:22.546Z,38.70
2017-06-24T11:00:50.092Z,38.70
2017-06-24T11:03:18.385Z,39.20
2017-06-24T11:05:46.704Z,39.50
2017-06-24T11:08:15.000Z,39.20
2017-06-24T11:10:43.324Z,39.00
2017-06-24T11:13:11.637Z,38.80
2017-06-24T11:15:39.920Z,38.30
2017-06-24T11:18:08.228Z,37.10
2017-06-24T11:20:36.517Z,37.40
2017-06-24T11:23:04.829Z,37.80
2017-06-24T11:25:33.116Z,38.10
2017-06-24T11:28:01.429Z,38.10
2017-06-24T11:30:29.723Z,38.20
2017-06-24T11:32:58.035Z,38.30
2017-06-24T11:35:26.325Z,38.30
2017-06-24T11:37:54.617Z,38.00
2017-06-24T11:40:22.930Z,38.50
2017-06-24T11:42:51.228Z,38.80
2017-06-24T11:45:19.532Z,38.10
2017-06-24T11:47:47.824Z,37.70
2017-06-24T11:50:16.128Z,38.20
2017-06-24T11:52:44.438Z,38.80
2017-06-24T11:55:12.925Z,38.30
2017-06-24T11:57:41.228Z,37.20
2017-06-24T12:00:09.525Z,37.30
2017-06-24T12:02:37.832Z,37.60
2017-06-24T12:05:06.116Z,38.00
2017-06-24T12:07:34.421Z,37.10
2017-06-24T12:10:02.736Z,37.30
2017-06-24T12:12:31.044Z,36.50
2017-06-24T12:14:59.344Z,36.60
2017-06-24T12:17:27.659Z,36.20
2017-06-24T12:19:55.976Z,35.90
2017-06-24T12:22:24.269Z,35.80
2017-06-24T12:24:52.584Z,37.00
2017-06-24T12:27:20.877Z,36.60
2017-06-24T12:29:49.185Z,36.10
2017-06-24T12:32:17.476Z,34.10
2017-06-24T12:34:45.784Z,34.50
2017-06-24T12:37:14.093Z,34.30
2017-06-24T12:39:42.417Z,34.60
2017-06-24T12:42:10.708Z,35.30
2017-06-24T12:44:38.997Z,34.90
2017-06-24T12:47:07.300Z,35.30
2017-06-24T12:49:35.625Z,35.20
2017-06-24T12:52:03.930Z,34.80
2017-06-24T12:54:32.212Z,34.70
2017-06-24T12:57:00.520Z,34.50
2017-06-24T12:59:28.806Z,34.60
2017-06-24T13:01:57.112Z,34.40
2017-06-24T13:04:25.400Z,34.20
2017-06-24T13:06:53.692Z,34.30
2017-06-24T13:09:22.004Z,34.50
2017-06-24T13:11:50.288Z,33.90
2017-06-24T13:14:18.597Z,33.50
2017-06-24T13:16:46.884Z,32.90
2017-06-24T13:19:15.197Z,33.70
2017-06-24T13:21:43.512Z,33.80
2017-06-24T13:24:11.862Z,33.80
2017-06-24T13:26:40.165Z,34.20
2017-06-24T13:29:08.460Z,34.90
2017-06-24T13:31:36.765Z,35.40
2017-06-24T13:34:05.061Z,33.90
2017-06-24T13:36:33.373Z,33.70
2017-06-24T13:39:01.656Z,34.20
2017-06-24T13:41:29.977Z,33.40
2017-06-24T13:43:58.270Z,33.00
2017-06-24T13:46:26.553Z,32.50
2017-06-24T13:48:54.860Z,32.10
2017-06-24T13:51:23.145Z,32.40
2017-06-24T13:53:51.453Z,32.80
2017-06-24T13:56:19.736Z,32.60
2017-06-24T13:58:48.061Z,33.30
2017-06-24T14:01:16.364Z,33.20
2017-06-24T14:03:44.664Z,32.80
2017-06-24T14:06:12.968Z,32.90
2017-06-24T14:08:41.285Z,33.10
2017-06-24T14:11:09.605Z,32.30
2017-06-24T14:13:37.888Z,33.70
2017-06-24T14:16:06.197Z,33.40
2017-06-24T14:18:34.477Z,33.10
2017-06-24T14:21:02.760Z,33.60
2017-06-24T14:23:31.064Z,34.10
2017-06-24T14:25:59.364Z,34.20
2017-06-24T14:28:27.668Z,34.20
2017-06-24T14:30:55.952Z,34.00
2017-06-24T14:33:24.272Z,34.00
2017-06-24T14:35:52.559Z,33.90
2017-06-24T14:38:20.844Z,33.20
2017-06-24T14:40:48.392Z,33.20
2017-06-24T14:43:16.690Z,33.50
2017-06-24T14:45:44.996Z,32.20
2017-06-24T14:48:13.296Z,32.20
2017-06-24T14:50:41.610Z,32.50
2017-06-24T14:53:09.904Z,32.50
2017-06-24T14:55:38.192Z,31.50
2017-06-24T14:58:06.505Z,31.10
2017-06-24T15:00:34.792Z,31.10
2017-06-24T15:03:03.132Z,32.10
2017-06-24T15:05:31.420Z,31.80
2017-06-24T15:07:59.741Z,31.40
2017-06-24T15:10:28.033Z,31.10
2017-06-24T15:12:56.325Z,31.40
2017-06-24T15:15:24.629Z,31.60
2017-06-24T15:17:52.913Z,31.50
2017-06-24T15:20:20.508Z,31.50
2017-06-24T15:22:48.788Z,31.20
2017-06-24T15:25:17.143Z,30.30
2017-06-24T15:27:45.446Z,30.10
2017-06-24T15:30:13.767Z,30.40
2017-06-24T15:32:41.345Z,30.40
2017-06-24T15:35:09.634Z,31.60
2017-06-24T15:37:37.946Z,31.10
2017-06-24T15:40:06.233Z,30.10
2017-06-24T15:42:34.540Z,29.90
2017-06-24T15:45:02.829Z,30.70
2017-06-24T15:47:31.116Z,31.40
2017-06-24T15:49:59.425Z,32.10
2017-06-24T15:52:27.708Z,31.90
2017-06-24T15:54:56.016Z,31.90
2017-06-24T15:57:24.305Z,32.00
2017-06-24T15:59:52.608Z,31.80
2017-06-24T16:02:20.896Z,30.70
2017-06-24T16:04:49.216Z,30.70
2017-06-24T16:07:17.504Z,30.40
2017-06-24T16:09:45.833Z,30.30
2017-06-24T16:12:13.367Z,30.30
2017-06-24T16:14:41.737Z,30.40
2017-06-24T16:17:10.065Z,31.10
2017-06-24T16:19:38.377Z,30.80
2017-06-24T16:22:06.689Z,30.40
2017-06-24T16:24:34.976Z,31.00
2017-06-24T16:27:03.300Z,31.60
2017-06-24T16:29:31.580Z,31.20
2017-06-24T16:31:59.884Z,31.60
2017-06-24T16:34:28.175Z,31.10
2017-06-24T16:36:56.501Z,31.30
2017-06-24T16:39:24.792Z,31.40
2017-06-24T16:41:53.081Z,31.30
2017-06-24T16:44:21.388Z,32.00
2017-06-24T16:46:49.672Z,32.40
2017-06-24T16:49:17.981Z,32.20
2017-06-24T16:51:46.276Z,31.80
2017-06-24T16:54:14.592Z,31.30
2017-06-24T16:56:42.889Z,31.30
2017-06-24T16:59:11.226Z,31.30
2017-06-24T17:01:39.524Z,31.30
2017-06-24T17:04:07.812Z,30.20
2017-06-24T17:06:36.120Z,30.60
2017-06-24T17:09:04.411Z,30.70
2017-06-24T17:11:32.717Z,30.70
2017-06-24T17:14:00.997Z,29.90
2017-06-24T17:16:29.306Z,30.00
2017-06-24T17:18:57.594Z,29.40
2017-06-24T17:21:25.906Z,27.50
2017-06-24T17:23:54.189Z,27.00
2017-06-24T17:26:22.503Z,27.60
2017-06-24T17:28:50.788Z,28.70
2017-06-24T17:31:19.109Z,30.10
2017-06-24T17:33:47.396Z,30.70
2017-06-24T17:36:15.695Z,31.60
2017-06-24T17:38:44.020Z,32.30
2017-06-24T17:41:12.337Z,33.20
2017-06-24T17:43:40.644Z,34.20
2017-06-24T17:46:08.932Z,34.60
2017-06-24T17:48:37.243Z,35.10
2017-06-24T17:51:05.528Z,35.40
2017-06-24T17:53:33.836Z,35.80
2017-06-24T17:56:02.118Z,36.00
2017-06-24T17:58:30.405Z,35.70
2017-06-24T18:00:58.720Z,35.30
2017-06-24T18:03:27.008Z,35.00
2017-06-24T18:05:55.314Z,35.20
2017-06-24T18:08:23.598Z,35.40
2017-06-24T18:10:51.909Z,35.60
2017-06-24T18:13:20.197Z,36.70
2017-06-24T18:15:48.508Z,36.60
2017-06-24T18:18:16.801Z,37.10
2017-06-24T18:20:45.094Z,37.20
2017-06-24T18:23:13.426Z,37.70
2017-06-24T18:25:41.729Z,37.80
2017-06-24T18:28:10.036Z,37.80
2017-06-24T18:30:38.320Z,38.30
2017-06-24T18:33:06.624Z,38.30
2017-06-24T18:35:34.912Z,38.70
2017-06-24T18:38:03.226Z,38.80
2017-06-24T18:40:31.514Z,39.00
2017-06-24T18:42:59.810Z,39.10
2017-06-24T18:45:28.116Z,39.40
2017-06-24T18:47:56.414Z,39.50
2017-06-24T18:50:24.721Z,39.50
2017-06-24T18:52:53.017Z,39.50
2017-06-24T18:55:21.321Z,39.70
2017-06-24T18:57:49.609Z,40.00
2017-06-24T19:00:17.917Z,40.30
2017-06-24T19:02:46.204Z,40.20
2017-06-24T19:05:14.497Z,40.50
2017-06-24T19:07:42.827Z,40.80
2017-06-24T19:10:11.121Z,41.10
2017-06-24T19:12:39.429Z,41.50
2017-06-24T19:15:07.721Z,41.70
2017-06-24T19:17:35.269Z,41.70
2017-06-24T19:20:03.558Z,42.60
2017-06-24T19:22:31.877Z,42.90
2017-06-24T19:25:00.168Z,43.50
2017-06-24T19:27:28.456Z,43.90
2017-06-24T19:29:56.761Z,43.90
2017-06-24T19:32:25.050Z,44.00
2017-06-24T19:34:53.356Z,44.30
2017-06-24T19:37:21.644Z,44.50
2017-06-24T19:39:49.953Z,44.80
2017-06-24T19:42:18.237Z,45.00
2017-06-24T19:44:46.548Z,45.30
2017-06-24T19:47:14.850Z,45.90
2017-06-24T19:49:43.169Z,46.40
2017-06-24T19:52:11.512Z,46.40
2017-06-24T19:54:39.801Z,46.40
2017-06-24T19:57:08.120Z,46.80
2017-06-24T19:59:36.408Z,46.90
2017-06-24T20:02:04.711Z,47.20
2017-06-24T20:04:33.017Z,47.50
2017-06-24T20:07:01.349Z,47.70
2017-06-24T20:09:29.649Z,48.50
2017-06-24T20:11:57.964Z,49.10
2017-06-24T20:14:26.268Z,49.30
2017-06-24T20:16:54.559Z,49.60
2017-06-24T20:19:22.105Z,49.60
2017-06-24T20:21:50.392Z,50.00
2017-06-24T20:24:18.705Z,50.60
2017-06-24T20:26:46.996Z,50.60
2017-06-24T20:29:15.288Z,51.30
2017-06-24T20:31:43.632Z,51.20
2017-06-24T20:34:11.930Z,51.10
2017-06-24T20:36:40.256Z,51.50
2017-06-24T20:39:08.532Z,52.00
2017-06-24T20:41:36.850Z,52.70
2017-06-24T20:44:05.133Z,52.80
2017-06-24T20:46:33.423Z,52.60
2017-06-24T20:49:01.732Z,52.80
2017-06-24T20:51:30.029Z,53.00
2017-06-24T20:53:58.340Z,53.40
2017-06-24T20:56:26.628Z,53.90
2017-06-24T20:58:54.941Z,54.10
2017-06-24T21:01:23.228Z,54.70
2017-06-24T21:03:51.537Z,55.50
2017-06-24T21:06:19.844Z,55.40
2017-06-24T21:08:48.129Z,55.70
2017-06-24T21:11:16.450Z,56.20
2017-06-24T21:13:44.748Z,56.60
2017-06-24T21:16:13.062Z,56.60
2017-06-24T21:18:41.353Z,56.30
2017-06-24T21:21:09.713Z,56.80
2017-06-24T21:23:38.004Z,56.50
2017-06-24T21:26:06.288Z,57.30
2017-06-24T21:28:34.591Z,57.50
2017-06-24T21:31:02.876Z,57.40
2017-06-24T21:33:31.179Z,57.70
2017-06-24T21:35:59.468Z,57.90
2017-06-24T21:38:27.856Z,57.90
2017-06-24T21:40:56.147Z,57.80
2017-06-24T21:43:24.453Z,58.40
2017-06-24T21:45:52.748Z,58.60
2017-06-24T21:48:21.036Z,58.80
2017-06-24T21:50:49.345Z,59.20
2017-06-24T21:53:17.641Z,59.40
2017-06-24T21:55:45.960Z,59.90
2017-06-24T21:58:14.256Z,59.60
2017-06-24T22:00:42.578Z,60.10
2017-06-24T22:03:10.882Z,61.00
2017-06-24T22:05:39.197Z,61.40
2017-06-24T22:08:07.484Z,61.40
2017-06-24T22:10:35.772Z,60.50
2017-06-24T22:13:04.084Z,60.10
2017-06-24T22:15:32.379Z,60.40
2017-06-24T22:18:00.688Z,60.70
2017-06-24T22:20:29.001Z,61.40
2017-06-24T22:22:57.309Z,61.80
2017-06-24T22:25:25.592Z,61.20
2017-06-24T22:27:53.908Z,61.20
2017-06-24T22:30:22.191Z,61.30
2017-06-24T22:32:50.487Z,61.60
2017-06-24T22:35:18.800Z,61.70
2017-06-24T22:37:47.088Z,61.60
2017-06-24T22:40:15.402Z,61.20
2017-06-24T22:42:43.705Z,61.60
2017-06-24T22:45:12.020Z,61.90
2017-06-24T22:47:40.309Z,62.40
2017-06-24T22:50:08.625Z,62.30
2017-06-24T22:52:36.917Z,62.50
2017-06-24T22:55:05.209Z,62.80
2017-06-24T22:57:33.516Z,62.60
2017-06-24T23:00:01.818Z,62.80
2017-06-24T23:02:30.128Z,62.90
2017-06-24T23:04:58.417Z,62.70
2017-06-24T23:07:26.724Z,62.90
2017-06-24T23:09:55.008Z,62.50
2017-06-24T23:12:23.492Z,62.40
2017-06-24T23:14:51.772Z,63.00
2017-06-24T23:17:20.057Z,63.60
2017-06-24T23:19:48.365Z,63.60
2017-06-24T23:22:16.660Z,63.60
2017-06-24T23:24:44.989Z,63.90
2017-06-24T23:27:13.285Z,63.60
2017-06-24T23:29:41.598Z,63.20
2017-06-24T23:32:09.912Z,63.60
2017-06-24T23:34:38.234Z,63.50
2017-06-24T23:37:06.525Z,63.90
2017-06-24T23:39:34.860Z,63.60
2017-06-24T23:42:03.176Z,62.80
2017-06-24T23:44:31.509Z,63.00
2017-06-24T23:46:59.817Z,63.30
2017-06-24T23:49:28.113Z,63.90
2017-06-24T23:51:56.421Z,64.00
2017-06-24T23:54:24.712Z,63.90
2017-06-24T23:56:53.101Z,64.40
2017-06-24T23:59:21.385Z,64.80
